Time;durP1;ratioP1;P1;durP2;ratioP2;P2;SDS_P1;SDS_P2;PMS_P1;PMS_P2;Temp;Humidity;BMP_temperature;BMP_pressure;BME280_temperature;BME280_humidity;BME280_pressure;Samples;Min_cycle;Max_cycle;Signal;HPM_P1;HPM_P2
2022/06/26 00:01:32;;;;;;;1999.90;999.90;;;17.60;99.90;;;;;;5085017;28;20188;-66
2022/06/26 00:03:58;;;;;;;1999.90;999.90;;;17.50;99.90;;;;;;5081441;28;20220;-69
2022/06/26 00:06:24;;;;;;;1999.90;999.90;;;17.50;99.90;;;;;;5081918;28;20223;-69
2022/06/26 00:08:49;;;;;;;1999.90;999.90;;;17.50;99.90;;;;;;5078230;28;20217;-66
2022/06/26 00:11:15;;;;;;;1999.90;999.90;;;17.40;99.90;;;;;;5073056;28;20497;-69
2022/06/26 00:13:41;;;;;;;1999.90;999.90;;;17.30;99.90;;;;;;5090265;28;20206;-69
2022/06/26 00:16:07;;;;;;;1999.90;999.90;;;17.20;99.90;;;;;;5057683;28;20545;-68
2022/06/26 00:18:33;;;;;;;1999.90;999.90;;;17.10;99.90;;;;;;5079953;28;20180;-68
2022/06/26 00:20:58;;;;;;;1999.90;999.90;;;17.10;99.90;;;;;;5075459;28;20273;-68
2022/06/26 00:23:24;;;;;;;1999.90;999.90;;;17.10;99.90;;;;;;5080639;28;20212;-68
2022/06/26 00:25:50;;;;;;;1999.90;999.90;;;17.10;99.90;;;;;;5077933;28;20618;-68
2022/06/26 00:28:15;;;;;;;1999.90;999.90;;;17.00;99.90;;;;;;5064680;28;20182;-68
2022/06/26 00:30:41;;;;;;;1999.90;999.90;;;17.00;99.90;;;;;;5062083;28;20186;-69
2022/06/26 00:33:07;;;;;;;1999.90;999.90;;;16.90;99.90;;;;;;5074777;28;20185;-68
2022/06/26 00:35:32;;;;;;;1999.90;999.90;;;16.90;99.90;;;;;;5065122;28;20189;-68
2022/06/26 00:37:58;;;;;;;1999.90;999.90;;;16.90;99.90;;;;;;5058358;28;20181;-69
2022/06/26 00:40:24;;;;;;;1999.90;999.90;;;16.90;99.90;;;;;;5084487;28;20192;-68
2022/06/26 00:42:49;;;;;;;1999.90;999.90;;;16.80;99.90;;;;;;5057033;28;20276;-68
2022/06/26 00:45:15;;;;;;;1999.90;999.90;;;16.80;99.90;;;;;;5073693;28;20259;-68
2022/06/26 00:47:41;;;;;;;1999.90;999.90;;;17.00;99.90;;;;;;5075938;28;20243;-68
2022/06/26 00:50:08;;;;;;;1999.90;999.90;;;17.10;99.90;;;;;;5074244;28;20645;-68
2022/06/26 00:52:35;;;;;;;1999.90;999.90;;;17.10;99.90;;;;;;5057313;28;20547;-68
2022/06/26 00:55:02;;;;;;;1999.90;999.90;;;17.10;99.90;;;;;;5085995;28;20553;-68
2022/06/26 00:57:28;;;;;;;1999.90;999.90;;;17.00;99.90;;;;;;5072578;28;20264;-68
2022/06/26 00:59:56;;;;;;;1999.90;999.90;;;17.00;99.90;;;;;;5068796;28;20188;-68
2022/06/26 01:02:22;;;;;;;1999.90;999.90;;;17.00;99.90;;;;;;5085399;28;20633;-68
2022/06/26 01:04:48;;;;;;;1999.90;999.90;;;16.80;99.90;;;;;;5085918;28;20224;-68
2022/06/26 01:07:15;;;;;;;1999.90;999.90;;;16.80;99.90;;;;;;5054949;28;20632;-68
2022/06/26 01:09:41;;;;;;;1999.90;999.90;;;16.60;99.90;;;;;;5079577;28;20272;-68
2022/06/26 01:12:07;;;;;;;1999.90;999.90;;;16.60;99.90;;;;;;5087204;28;20185;-68
2022/06/26 01:14:33;;;;;;;1999.90;999.90;;;16.60;99.90;;;;;;5075773;28;20263;-68
2022/06/26 01:17:01;;;;;;;1999.90;999.90;;;16.80;99.90;;;;;;5071207;28;20188;-68
2022/06/26 01:19:27;;;;;;;1999.90;999.90;;;16.90;99.90;;;;;;5076707;28;20184;-68
2022/06/26 01:21:53;;;;;;;1999.90;999.90;;;16.80;99.90;;;;;;5081860;28;20197;-68
2022/06/26 01:24:19;;;;;;;1999.90;999.90;;;16.70;99.90;;;;;;5078132;28;20212;-70
2022/06/26 01:26:45;;;;;;;1999.90;999.90;;;16.60;99.90;;;;;;5095110;28;20189;-69
2022/06/26 01:29:10;;;;;;;1999.90;999.90;;;16.50;99.90;;;;;;5073600;28;20205;-69
2022/06/26 01:31:36;;;;;;;1999.90;999.90;;;16.50;99.90;;;;;;5080274;28;20185;-68
2022/06/26 01:34:10;;;;;;;1999.90;999.90;;;16.60;99.90;;;;;;5065642;28;20313;-68
2022/06/26 01:36:36;;;;;;;1999.90;999.90;;;16.80;99.90;;;;;;5088450;28;20200;-68
2022/06/26 01:39:03;;;;;;;1999.90;999.90;;;16.80;99.90;;;;;;5060395;28;20262;-68
2022/06/26 01:41:28;;;;;;;1999.90;999.90;;;16.90;99.90;;;;;;5075650;28;20190;-68
2022/06/26 01:43:54;;;;;;;1999.90;999.90;;;16.70;99.90;;;;;;5075340;28;20306;-68
2022/06/26 01:46:22;;;;;;;1999.90;999.90;;;16.80;99.90;;;;;;5063417;28;20545;-69
2022/06/26 01:48:48;;;;;;;1999.90;999.90;;;16.80;99.90;;;;;;5076439;28;20182;-68
2022/06/26 01:51:14;;;;;;;1999.90;999.90;;;16.60;99.90;;;;;;5074571;28;20630;-69
2022/06/26 01:53:40;;;;;;;1999.90;999.90;;;16.50;99.90;;;;;;5057332;28;20198;-68
2022/06/26 01:56:06;;;;;;;1999.90;999.90;;;16.40;99.90;;;;;;5087281;28;20192;-68
2022/06/26 01:58:33;;;;;;;1999.90;999.90;;;16.40;99.90;;;;;;5092999;28;20180;-68
2022/06/26 02:00:59;;;;;;;1999.90;999.90;;;16.40;99.90;;;;;;5054429;28;20276;-68
2022/06/26 02:03:26;;;;;;;1999.90;999.90;;;16.40;99.90;;;;;;5076312;28;20225;-68
2022/06/26 02:05:52;;;;;;;1999.90;999.90;;;16.40;99.90;;;;;;5090438;28;20184;-68
2022/06/26 02:08:17;;;;;;;1999.90;999.90;;;16.50;99.90;;;;;;5059483;28;20235;-68
2022/06/26 02:13:39;;;;;;;1999.90;999.90;;;16.40;99.90;;;;;;5074998;28;20187;-68
2022/06/26 02:16:28;;;;;;;1999.90;999.90;;;16.40;99.90;;;;;;5072010;28;20173;-69
2022/06/26 02:18:56;;;;;;;1999.90;999.90;;;16.40;99.90;;;;;;5087437;28;20200;-68
2022/06/26 02:21:24;;;;;;;1999.90;999.90;;;16.30;99.90;;;;;;5075410;28;20263;-68
2022/06/26 02:23:52;;;;;;;1999.90;999.90;;;16.20;99.90;;;;;;5074388;28;20209;-68
2022/06/26 02:26:19;;;;;;;1999.90;999.90;;;16.20;99.90;;;;;;5090278;28;20184;-68
2022/06/26 02:28:45;;;;;;;1999.90;999.90;;;16.20;99.90;;;;;;5074354;28;20208;-68
2022/06/26 02:31:11;;;;;;;1999.90;999.90;;;16.20;99.90;;;;;;5087715;28;20181;-69
2022/06/26 02:33:38;;;;;;;1999.90;999.90;;;16.10;99.90;;;;;;5092923;28;20195;-68
2022/06/26 02:36:05;;;;;;;1999.90;999.90;;;16.10;99.90;;;;;;5080640;28;20189;-68
2022/06/26 02:38:31;;;;;;;1999.90;999.90;;;16.10;99.90;;;;;;5088787;28;20353;-68
2022/06/26 02:40:57;;;;;;;1999.90;999.90;;;15.90;99.90;;;;;;5074991;28;20184;-68
2022/06/26 02:43:23;;;;;;;1999.90;999.90;;;15.90;99.90;;;;;;5060337;28;20549;-68
2022/06/26 02:45:52;;;;;;;1999.90;999.90;;;16.00;99.90;;;;;;5068373;28;20181;-68
2022/06/26 02:48:19;;;;;;;1999.90;999.90;;;16.10;99.90;;;;;;5075044;28;20185;-68
2022/06/26 02:50:46;;;;;;;1999.90;999.90;;;15.90;99.90;;;;;;5088186;28;20275;-67
2022/06/26 02:53:12;;;;;;;1999.90;999.90;;;15.90;99.90;;;;;;5073660;28;20185;-68
2022/06/26 02:55:38;;;;;;;1999.90;999.90;;;16.00;99.90;;;;;;5086592;28;20265;-68
2022/06/26 02:58:03;;;;;;;1999.90;999.90;;;16.10;99.90;;;;;;5067602;28;20267;-68
2022/06/26 03:00:29;;;;;;;1999.90;999.90;;;16.20;99.90;;;;;;5066190;28;20188;-69
2022/06/26 03:02:55;;;;;;;1999.90;999.90;;;16.10;99.90;;;;;;5092069;28;20189;-67
2022/06/26 03:05:21;;;;;;;1999.90;999.90;;;16.10;99.90;;;;;;5076689;28;21439;-68
2022/06/26 03:07:46;;;;;;;1999.90;999.90;;;16.10;99.90;;;;;;5074440;28;20258;-69
2022/06/26 03:10:12;;;;;;;1999.90;999.90;;;16.10;99.90;;;;;;5085804;28;20185;-68
2022/06/26 03:12:49;;;;;;;1999.90;999.90;;;16.10;99.90;;;;;;5074167;28;20208;-68
2022/06/26 03:15:15;;;;;;;1999.90;999.90;;;16.10;99.90;;;;;;5074885;28;20188;-68
2022/06/26 03:17:41;;;;;;;1999.90;999.90;;;16.10;99.90;;;;;;5065056;28;20204;-69
2022/06/26 03:20:12;;;;;;;1999.90;999.90;;;16.00;99.90;;;;;;5081828;28;20189;-68
2022/06/26 03:22:38;;;;;;;1999.90;999.90;;;15.80;99.90;;;;;;5053257;28;20251;-68
2022/06/26 03:25:06;;;;;;;1999.90;999.90;;;15.90;99.90;;;;;;5073108;28;20665;-68
2022/06/26 03:27:32;;;;;;;1999.90;999.90;;;16.00;99.90;;;;;;5077740;28;20180;-69
2022/06/26 03:29:58;;;;;;;1999.90;999.90;;;16.10;99.90;;;;;;5057816;28;20200;-68
2022/06/26 03:32:24;;;;;;;1999.90;999.90;;;16.10;99.90;;;;;;5082742;28;20181;-69
2022/06/26 03:34:49;;;;;;;1999.90;999.90;;;16.10;99.90;;;;;;5042586;28;20665;-68
2022/06/26 03:37:15;;;;;;;1999.90;999.90;;;16.20;99.90;;;;;;5089184;28;20192;-69
2022/06/26 03:39:40;;;;;;;1999.90;999.90;;;16.20;99.90;;;;;;5079562;28;20189;-68
2022/06/26 03:42:06;;;;;;;1999.90;999.90;;;16.30;99.90;;;;;;5072890;28;20177;-70
2022/06/26 03:44:32;;;;;;;1999.90;999.90;;;16.30;99.90;;;;;;5088637;28;20219;-68
2022/06/26 03:46:58;;;;;;;1999.90;999.90;;;16.40;99.90;;;;;;5071644;28;20286;-69
2022/06/26 03:49:25;;;;;;;1999.90;999.90;;;16.30;99.90;;;;;;5073394;28;20209;-70
2022/06/26 03:51:51;;;;;;;1999.90;999.90;;;16.20;99.90;;;;;;5091829;28;20535;-68
2022/06/26 03:54:18;;;;;;;1999.90;999.90;;;16.30;99.90;;;;;;5080130;28;20181;-68
2022/06/26 03:56:43;;;;;;;1999.90;999.90;;;16.40;99.90;;;;;;5076593;28;20280;-69
2022/06/26 03:59:09;;;;;;;1999.90;999.90;;;16.40;99.90;;;;;;5028746;28;20275;-68
2022/06/26 04:01:35;;;;;;;1999.90;999.90;;;16.40;99.90;;;;;;5077006;28;20185;-68
2022/06/26 04:04:00;;;;;;;1999.90;999.90;;;16.40;99.90;;;;;;5057483;28;20303;-67
2022/06/26 04:06:26;;;;;;;1999.90;999.90;;;16.40;99.90;;;;;;5056943;28;20185;-69
2022/06/26 04:08:52;;;;;;;1999.90;999.90;;;16.40;99.90;;;;;;5084843;28;20660;-71
2022/06/26 04:11:18;;;;;;;1999.90;999.90;;;16.30;99.90;;;;;;5074240;28;20661;-68
2022/06/26 04:13:43;;;;;;;1999.90;999.90;;;16.30;99.90;;;;;;5059447;28;20518;-68
2022/06/26 04:16:09;;;;;;;1999.90;999.90;;;16.30;99.90;;;;;;5079204;28;20237;-69
2022/06/26 04:18:35;;;;;;;1999.90;999.90;;;16.20;99.90;;;;;;5074168;28;20193;-69
2022/06/26 04:21:01;;;;;;;1999.90;999.90;;;16.00;99.90;;;;;;5086435;28;20272;-68
2022/06/26 04:23:27;;;;;;;1999.90;999.90;;;16.10;99.90;;;;;;5054938;28;20767;-69
2022/06/26 04:25:53;;;;;;;1999.90;999.90;;;16.10;99.90;;;;;;5082773;28;20185;-68
2022/06/26 04:28:19;;;;;;;1999.90;999.90;;;16.10;99.90;;;;;;5082883;28;20225;-68
2022/06/26 04:30:44;;;;;;;1999.90;999.90;;;16.20;99.90;;;;;;5078720;28;20213;-68
2022/06/26 04:33:10;;;;;;;1999.90;999.90;;;16.20;99.90;;;;;;5072589;28;20638;-69
2022/06/26 04:35:36;;;;;;;1999.90;999.90;;;16.40;99.90;;;;;;5065956;28;20587;-68
2022/06/26 04:38:02;;;;;;;1999.90;999.90;;;16.30;99.90;;;;;;5052553;28;20219;-68
2022/06/26 04:40:29;;;;;;;1999.90;999.90;;;16.40;99.90;;;;;;5064768;28;20185;-68
2022/06/26 04:42:55;;;;;;;1999.90;999.90;;;16.60;99.90;;;;;;5070293;28;20234;-68
2022/06/26 04:45:21;;;;;;;1999.90;999.90;;;16.60;99.90;;;;;;5079448;28;20677;-68
2022/06/26 04:47:47;;;;;;;1999.90;999.90;;;16.70;99.90;;;;;;5080302;28;20173;-68
2022/06/26 04:50:13;;;;;;;1999.90;999.90;;;16.90;99.90;;;;;;5077417;28;20272;-69
2022/06/26 04:52:42;;;;;;;1999.90;999.90;;;17.00;99.90;;;;;;5074684;28;20184;-68
2022/06/26 04:55:08;;;;;;;1999.90;999.90;;;17.10;99.90;;;;;;5081044;28;20181;-68
2022/06/26 04:57:34;;;;;;;1999.90;999.90;;;17.10;99.90;;;;;;5076506;28;20177;-68
2022/06/26 04:59:59;;;;;;;1999.90;999.90;;;17.10;99.90;;;;;;5057420;28;20213;-68
2022/06/26 05:02:25;;;;;;;1999.90;999.90;;;17.20;99.90;;;;;;5084160;28;20215;-69
2022/06/26 05:04:51;;;;;;;1999.90;999.90;;;17.20;99.90;;;;;;5069636;28;20224;-68
2022/06/26 05:07:16;;;;;;;1999.90;999.90;;;17.20;99.90;;;;;;5086027;28;20223;-68
2022/06/26 05:09:43;;;;;;;1999.90;999.90;;;17.20;99.90;;;;;;5075900;28;20637;-68
2022/06/26 05:12:09;;;;;;;1999.90;999.90;;;17.10;99.90;;;;;;5067191;28;20185;-69
2022/06/26 05:14:34;;;;;;;1999.90;999.90;;;17.00;99.90;;;;;;5087617;28;20189;-68
2022/06/26 05:17:00;;;;;;;1999.90;999.90;;;17.00;99.90;;;;;;5087009;28;20189;-68
2022/06/26 05:19:25;;;;;;;1999.90;999.90;;;17.10;99.90;;;;;;5092248;28;20648;-69
2022/06/26 05:21:52;;;;;;;1999.90;999.90;;;17.10;99.90;;;;;;5093505;28;20181;-69
2022/06/26 05:24:18;;;;;;;1999.90;999.90;;;17.20;99.90;;;;;;5075626;28;20730;-68
2022/06/26 05:26:44;;;;;;;1999.90;999.90;;;17.10;99.90;;;;;;5058617;28;20276;-68
2022/06/26 05:29:10;;;;;;;1999.90;999.90;;;17.20;99.90;;;;;;5087979;28;20219;-68
2022/06/26 05:31:36;;;;;;;1999.90;999.90;;;17.10;99.90;;;;;;5056570;28;20255;-68
2022/06/26 05:34:01;;;;;;;1999.90;999.90;;;17.20;99.90;;;;;;5063080;28;20665;-68
2022/06/26 05:36:27;;;;;;;1999.90;999.90;;;17.20;99.90;;;;;;5053983;28;20178;-68
2022/06/26 05:38:52;;;;;;;1999.90;999.90;;;17.20;99.90;;;;;;5086038;28;20181;-68
2022/06/26 05:41:18;;;;;;;1999.90;999.90;;;17.30;99.90;;;;;;5073614;28;20268;-68
2022/06/26 05:43:45;;;;;;;1999.90;999.90;;;17.30;99.90;;;;;;5050473;28;20655;-67
2022/06/26 05:46:10;;;;;;;1999.90;999.90;;;17.50;99.90;;;;;;5076388;28;20241;-68
2022/06/26 05:48:37;;;;;;;1999.90;999.90;;;17.60;99.90;;;;;;5055988;28;20178;-68
2022/06/26 05:51:03;;;;;;;1999.90;999.90;;;17.60;99.90;;;;;;5088499;28;20208;-68
2022/06/26 05:53:28;;;;;;;1999.90;999.90;;;17.60;99.90;;;;;;5091366;28;20218;-68
2022/06/26 05:55:54;;;;;;;1999.90;999.90;;;17.50;99.90;;;;;;5082130;28;20610;-68
2022/06/26 05:58:20;;;;;;;1999.90;999.90;;;17.50;99.90;;;;;;5073367;28;20177;-68
2022/06/26 06:00:46;;;;;;;1999.90;999.90;;;17.60;99.90;;;;;;5051938;28;20198;-68
2022/06/26 06:03:12;;;;;;;1999.90;999.90;;;17.70;99.90;;;;;;5091690;28;20204;-68
2022/06/26 06:05:37;;;;;;;1999.90;999.90;;;17.90;99.90;;;;;;5065759;28;20633;-68
2022/06/26 06:08:03;;;;;;;1999.90;999.90;;;17.90;99.90;;;;;;5083487;28;20204;-68
2022/06/26 06:10:29;;;;;;;1999.90;999.90;;;18.10;99.90;;;;;;5092003;28;20636;-68
2022/06/26 06:12:55;;;;;;;1999.90;999.90;;;18.20;99.90;;;;;;5093785;28;20188;-69
2022/06/26 06:15:21;;;;;;;1999.90;999.90;;;18.10;99.90;;;;;;5089353;28;20185;-68
2022/06/26 06:17:48;;;;;;;1999.90;999.90;;;18.00;99.90;;;;;;5068383;28;20207;-67
2022/06/26 06:20:18;;;;;;;1999.90;999.90;;;17.90;99.90;;;;;;5083133;28;20184;-67
2022/06/26 06:22:53;;;;;;;1999.90;999.90;;;18.00;99.90;;;;;;5074217;28;20201;-68
2022/06/26 06:25:20;;;;;;;1999.90;999.90;;;18.10;99.90;;;;;;5085190;28;20204;-68
2022/06/26 06:27:46;;;;;;;1999.90;999.90;;;18.20;99.90;;;;;;5090263;28;20245;-68
2022/06/26 06:30:13;;;;;;;1999.90;999.90;;;18.20;99.90;;;;;;5048805;28;20189;-67
2022/06/26 06:32:40;;;;;;;1999.90;999.90;;;18.10;99.90;;;;;;5060975;28;20189;-68
2022/06/26 06:35:07;;;;;;;1999.90;999.90;;;18.20;99.90;;;;;;5088043;28;20249;-67
2022/06/26 06:37:33;;;;;;;1999.90;999.90;;;18.20;99.90;;;;;;5075298;28;20267;-67
2022/06/26 06:39:59;;;;;;;1999.90;999.90;;;18.20;99.90;;;;;;5086721;28;20518;-67
2022/06/26 06:42:24;;;;;;;1999.90;999.90;;;18.40;99.90;;;;;;5082954;28;20225;-67
2022/06/26 06:44:50;;;;;;;1999.90;999.90;;;18.60;99.90;;;;;;5078976;28;20220;-68
2022/06/26 06:47:16;;;;;;;1999.90;999.90;;;18.80;99.90;;;;;;5083720;28;20697;-67
2022/06/26 06:49:42;;;;;;;1999.90;999.90;;;18.90;99.90;;;;;;5086305;28;20200;-68
2022/06/26 06:52:08;;;;;;;1999.90;999.90;;;18.80;99.90;;;;;;5091752;28;20592;-67
2022/06/26 06:54:34;;;;;;;1999.90;999.90;;;18.60;99.90;;;;;;5065925;28;20263;-67
2022/06/26 06:57:00;;;;;;;1999.90;999.90;;;18.50;99.90;;;;;;5056121;28;20189;-67
2022/06/26 06:59:26;;;;;;;1999.90;999.90;;;18.40;99.90;;;;;;5091725;28;20579;-68
2022/06/26 07:01:52;;;;;;;1999.90;999.90;;;18.60;99.90;;;;;;5092693;28;20188;-67
2022/06/26 07:04:19;;;;;;;1999.90;999.90;;;18.50;99.90;;;;;;5067279;28;20227;-68
2022/06/26 07:06:45;;;;;;;1999.90;999.90;;;18.40;99.90;;;;;;5064384;28;20192;-68
2022/06/26 07:09:11;;;;;;;1999.90;999.90;;;18.30;99.90;;;;;;5073150;28;20192;-67
2022/06/26 07:11:37;;;;;;;1999.90;999.90;;;18.50;99.90;;;;;;5077133;28;20189;-68
2022/06/26 07:14:03;;;;;;;1999.90;999.90;;;18.70;99.90;;;;;;5089388;28;20565;-68
2022/06/26 07:16:29;;;;;;;1999.90;999.90;;;18.90;99.90;;;;;;5086846;28;20184;-68
2022/06/26 07:18:54;;;;;;;1999.90;999.90;;;19.10;99.90;;;;;;5060489;28;20272;-67
2022/06/26 07:21:20;;;;;;;1999.90;999.90;;;19.10;99.90;;;;;;5073425;28;20706;-67
2022/06/26 07:23:46;;;;;;;1999.90;999.90;;;19.20;99.90;;;;;;5073460;28;20213;-69
2022/06/26 07:26:12;;;;;;;1999.90;999.90;;;19.10;99.90;;;;;;5073530;28;20192;-67
2022/06/26 07:28:38;;;;;;;1999.90;999.90;;;19.30;99.90;;;;;;5080191;28;20196;-71
2022/06/26 07:31:03;;;;;;;1999.90;999.90;;;19.30;99.90;;;;;;5072832;28;20664;-67
2022/06/26 07:36:13;;;;;;;1999.90;999.90;;;19.50;99.90;;;;;;5088266;28;20189;-67
2022/06/26 07:38:39;;;;;;;1999.90;999.90;;;19.80;99.90;;;;;;5064136;28;20265;-69
2022/06/26 07:41:04;;;;;;;1999.90;999.90;;;20.10;99.90;;;;;;5074854;28;20185;-67
2022/06/26 07:43:30;;;;;;;1999.90;999.90;;;20.10;99.90;;;;;;5092070;28;20538;-67
2022/06/26 07:45:57;;;;;;;1999.90;999.90;;;20.20;99.90;;;;;;5091983;28;20714;-67
2022/06/26 07:48:22;;;;;;;1999.90;999.90;;;20.10;99.90;;;;;;5068032;28;20193;-68
2022/06/26 07:50:48;;;;;;;1999.90;999.90;;;20.10;99.90;;;;;;5073139;28;20200;-69
2022/06/26 07:53:14;;;;;;;1999.90;999.90;;;20.20;99.90;;;;;;5067153;28;20195;-69
2022/06/26 07:55:40;;;;;;;1999.90;999.90;;;20.20;99.90;;;;;;5086873;28;20247;-69
2022/06/26 07:58:06;;;;;;;1999.90;999.90;;;20.20;99.90;;;;;;5068602;28;20702;-68
2022/06/26 08:00:31;;;;;;;1999.90;999.90;;;20.30;99.90;;;;;;5089769;28;20192;-69
2022/06/26 08:03:08;;;;;;;1999.90;999.90;;;20.10;99.90;;;;;;5091377;28;20625;-69
2022/06/26 08:05:34;;;;;;;1999.90;999.90;;;20.10;99.90;;;;;;5055007;28;20240;-68
2022/06/26 08:08:00;;;;;;;1999.90;999.90;;;20.30;99.90;;;;;;5071920;28;20732;-69
2022/06/26 08:10:26;;;;;;;1999.90;999.90;;;20.40;99.90;;;;;;5070923;28;20279;-69
2022/06/26 08:12:51;;;;;;;1999.90;999.90;;;20.40;99.90;;;;;;5079293;28;20189;-69
2022/06/26 08:15:17;;;;;;;1999.90;999.90;;;20.40;99.90;;;;;;5079554;28;20200;-70
2022/06/26 08:17:43;;;;;;;1999.90;999.90;;;20.60;99.90;;;;;;5068626;28;20191;-68
2022/06/26 08:20:09;;;;;;;1225.60;650.75;;;20.90;99.90;;;;;;5083276;28;20184;-68
2022/06/26 08:22:35;;;;;;;1583.88;839.38;;;21.00;99.90;;;;;;5080792;28;20191;-68
2022/06/26 08:25:00;;;;;;;1999.90;999.90;;;20.90;99.90;;;;;;5086132;28;20216;-68
2022/06/26 08:27:26;;;;;;;1643.38;846.75;;;20.70;99.90;;;;;;5068336;28;20242;-71
2022/06/26 08:29:51;;;;;;;1999.90;999.90;;;20.60;99.90;;;;;;5082010;28;20193;-67
2022/06/26 08:32:17;;;;;;;1235.88;630.28;;;20.70;99.90;;;;;;5044460;28;20595;-69
2022/06/26 08:34:43;;;;;;;1999.90;999.90;;;20.90;99.90;;;;;;5076555;28;20723;-74
2022/06/26 08:37:08;;;;;;;1999.90;999.90;;;20.90;99.90;;;;;;5085074;28;20189;-69
2022/06/26 08:39:35;;;;;;;1373.47;738.05;;;21.10;99.90;;;;;;5085268;28;20231;-69
2022/06/26 08:42:02;;;;;;;1999.90;999.90;;;21.20;99.90;;;;;;5080611;28;20184;-67
2022/06/26 08:44:29;;;;;;;1999.90;999.90;;;21.10;99.90;;;;;;5081092;28;20241;-68
2022/06/26 08:46:56;;;;;;;1999.90;999.90;;;21.10;99.90;;;;;;5076795;28;20549;-67
2022/06/26 08:49:24;;;;;;;1722.70;891.03;;;21.20;99.90;;;;;;5075449;28;20233;-67
2022/06/26 08:51:51;;;;;;;1447.22;773.75;;;21.30;99.90;;;;;;5077405;28;20189;-68
2022/06/26 08:54:18;;;;;;;1999.90;999.90;;;21.10;99.90;;;;;;5083351;28;20289;-69
2022/06/26 08:56:48;;;;;;;1999.90;999.90;;;21.10;99.90;;;;;;5062887;28;20213;-68
2022/06/26 08:59:17;;;;;;;1999.90;999.90;;;21.10;99.90;;;;;;5075793;28;20654;-67
2022/06/26 09:01:43;;;;;;;1999.90;999.90;;;21.30;99.90;;;;;;5075771;28;20181;-68
2022/06/26 09:04:11;;;;;;;1999.90;999.90;;;21.30;99.90;;;;;;5070821;28;20673;-67
2022/06/26 09:06:37;;;;;;;1344.30;716.70;;;21.40;99.90;;;;;;5075171;28;20649;-68
2022/06/26 09:09:15;;;;;;;1999.90;999.90;;;21.50;99.90;;;;;;5075054;28;20190;-67
2022/06/26 09:11:41;;;;;;;1999.90;999.90;;;21.50;99.90;;;;;;5081778;28;20660;-68
2022/06/26 09:14:06;;;;;;;1867.40;950.60;;;21.80;99.90;;;;;;5057349;28;22193;-67
2022/06/26 09:16:35;;;;;;;1702.45;949.10;;;22.50;99.90;;;;;;5067550;28;20264;-68
2022/06/26 09:19:12;;;;;;;1880.78;999.90;;;23.30;99.90;;;;;;5083417;28;20210;-67
2022/06/26 09:21:39;;;;;;;1999.90;999.90;;;23.90;99.90;;;;;;5084768;28;20188;-68
2022/06/26 09:24:10;;;;;;;1999.90;999.90;;;24.00;99.90;;;;;;5077127;28;20239;-68
2022/06/26 09:26:36;;;;;;;1999.90;999.90;;;24.10;99.90;;;;;;5086599;28;20250;-68
2022/06/26 09:29:18;;;;;;;1999.90;999.90;;;24.40;99.90;;;;;;5079297;28;20186;-74
2022/06/26 09:31:44;;;;;;;1999.90;999.90;;;24.60;99.90;;;;;;5074620;28;20535;-67
2022/06/26 09:34:24;;;;;;;1999.90;999.90;;;24.80;99.90;;;;;;5075640;28;20212;-68
2022/06/26 09:37:01;;;;;;;1999.90;999.90;;;24.80;99.90;;;;;;5086259;28;20189;-69
2022/06/26 09:39:29;;;;;;;1999.90;999.90;;;24.30;99.90;;;;;;5076942;28;20185;-67
2022/06/26 09:41:54;;;;;;;1999.90;999.90;;;24.50;99.90;;;;;;5079938;28;20212;-68
2022/06/26 09:44:22;;;;;;;1999.90;999.90;;;24.70;99.90;;;;;;5056782;28;20642;-69
2022/06/26 09:46:48;;;;;;;1999.90;999.90;;;24.30;99.90;;;;;;5067040;28;20246;-68
2022/06/26 09:49:15;;;;;;;1999.90;999.90;;;24.10;99.90;;;;;;5086498;28;20188;-68
2022/06/26 09:51:43;;;;;;;1999.90;999.90;;;23.70;99.90;;;;;;5070214;28;20182;-68
2022/06/26 09:54:09;;;;;;;1999.90;999.90;;;23.50;99.90;;;;;;5085787;28;20184;-74
2022/06/26 09:56:35;;;;;;;1999.90;999.90;;;23.30;99.90;;;;;;5077489;28;20182;-68
2022/06/26 09:59:01;;;;;;;1999.90;999.90;;;23.40;99.90;;;;;;5077444;28;20197;-67
2022/06/26 10:07:01;;;;;;;1999.90;999.90;;;23.20;99.90;;;;;;5075613;28;20200;-68
2022/06/26 10:09:28;;;;;;;1999.90;999.90;;;23.20;99.90;;;;;;5090359;28;20692;-68
2022/06/26 10:11:56;;;;;;;1999.90;999.90;;;23.00;99.90;;;;;;5075222;28;20199;-69
2022/06/26 10:14:25;;;;;;;1999.90;999.90;;;23.00;99.90;;;;;;5065031;28;20276;-68
2022/06/26 10:17:20;;;;;;;1999.90;999.90;;;23.10;99.90;;;;;;5089197;28;20181;-67
2022/06/26 10:19:50;;;;;;;1999.90;999.90;;;23.20;99.90;;;;;;5070510;28;20591;-68
2022/06/26 10:22:16;;;;;;;1990.63;999.90;;;23.40;99.90;;;;;;5081253;28;20208;-68
2022/06/26 10:25:03;;;;;;;1999.90;999.90;;;23.40;99.90;;;;;;5074277;28;20251;-68
2022/06/26 10:27:34;;;;;;;1999.90;999.90;;;23.50;99.90;;;;;;5074618;28;20178;-68
2022/06/26 10:30:15;;;;;;;1971.47;999.90;;;23.70;99.90;;;;;;5058384;28;20598;-68
2022/06/26 10:32:44;;;;;;;1915.93;999.90;;;23.90;99.90;;;;;;5077305;28;20185;-68
2022/06/26 10:35:13;;;;;;;1877.45;999.90;;;24.10;99.90;;;;;;5078649;28;20267;-70
2022/06/26 10:37:45;;;;;;;1687.65;999.90;;;24.60;99.90;;;;;;5072385;28;20189;-73
2022/06/26 10:42:52;;;;;;;1607.20;999.90;;;24.30;99.90;;;;;;5093265;28;20188;-68
2022/06/26 10:43:04;;;;;;;1650.15;999.90;;;23.60;99.90;;;;;;5088665;28;20263;-68
2022/06/26 10:45:31;;;;;;;1707.70;999.90;;;23.30;99.90;;;;;;5074703;28;20205;-69
2022/06/26 10:48:02;;;;;;;1765.43;999.90;;;23.50;99.90;;;;;;5076037;28;20181;-69
2022/06/26 10:50:33;;;;;;;1724.75;999.90;;;23.80;99.90;;;;;;5089746;28;20597;-66
2022/06/26 10:53:20;;;;;;;1683.32;999.90;;;24.20;99.90;;;;;;5081996;28;20189;-79
2022/06/26 10:55:53;;;;;;;1725.75;999.90;;;24.40;99.90;;;;;;5070624;28;20181;-79
2022/06/26 10:58:24;;;;;;;1623.32;999.90;;;24.60;99.90;;;;;;5070968;28;20208;-79
2022/06/26 11:00:52;;;;;;;1585.78;999.90;;;24.30;99.90;;;;;;5090760;28;20184;-78
2022/06/26 11:03:19;;;;;;;1578.93;999.90;;;24.50;99.90;;;;;;5078071;28;20197;-82
2022/06/26 11:05:59;;;;;;;1575.78;999.90;;;24.80;99.90;;;;;;5064240;28;20250;-65
2022/06/26 11:08:34;;;;;;;1536.97;999.90;;;25.00;99.90;;;;;;5083089;28;20263;-67
2022/06/26 11:11:22;;;;;;;1567.60;999.90;;;25.10;99.90;;;;;;5082132;28;20172;-65
2022/06/26 11:14:00;;;;;;;1604.13;999.90;;;25.00;99.90;;;;;;5079653;28;20782;-65
2022/06/26 11:16:52;;;;;;;1552.38;999.90;;;24.60;99.90;;;;;;5074154;28;20216;-66
2022/06/26 11:19:20;;;;;;;1527.40;999.90;;;24.50;99.90;;;;;;5055345;28;20292;-66
2022/06/26 11:21:46;;;;;;;1560.85;999.90;;;24.40;99.90;;;;;;5081610;28;20775;-67
2022/06/26 11:24:12;;;;;;;1531.63;999.90;;;24.10;99.90;;;;;;5068814;28;20217;-65
2022/06/26 11:26:37;;;;;;;1517.97;999.90;;;24.30;99.90;;;;;;5058091;28;21505;-65
2022/06/26 11:29:05;;;;;;;1540.43;999.90;;;24.30;99.90;;;;;;5087643;28;20208;-66
2022/06/26 11:31:32;;;;;;;1512.88;999.90;;;24.10;99.90;;;;;;5079752;28;20581;-66
2022/06/26 11:34:08;;;;;;;1493.28;999.90;;;24.10;99.90;;;;;;5079779;28;20192;-65
2022/06/26 11:36:34;;;;;;;1580.30;999.90;;;24.30;99.90;;;;;;5075369;28;20226;-66
2022/06/26 11:39:00;;;;;;;1565.70;999.90;;;24.30;99.90;;;;;;5081371;28;20197;-66
2022/06/26 11:41:26;;;;;;;1523.88;999.90;;;24.30;99.90;;;;;;5080769;28;20177;-66
2022/06/26 11:43:54;;;;;;;1542.07;999.90;;;24.20;99.90;;;;;;5065738;28;20797;-66
2022/06/26 11:46:21;;;;;;;1525.72;999.90;;;23.90;99.90;;;;;;5084906;28;20185;-70
2022/06/26 11:48:50;;;;;;;1519.22;999.90;;;23.90;99.90;;;;;;5074198;28;20283;-66
2022/06/26 11:51:18;;;;;;;1492.50;999.90;;;23.90;99.90;;;;;;5084472;28;20177;-65
2022/06/26 11:53:47;;;;;;;1462.80;999.90;;;24.10;99.90;;;;;;5090427;28;20589;-66
2022/06/26 11:56:21;;;;;;;1467.93;999.90;;;24.10;99.90;;;;;;5079505;28;20237;-71
2022/06/26 11:58:49;;;;;;;1503.78;999.90;;;24.50;99.90;;;;;;5075708;28;20185;-66
2022/06/26 12:01:15;;;;;;;1471.85;999.90;;;24.60;99.90;;;;;;5072939;28;20189;-66
2022/06/26 12:03:46;;;;;;;1461.22;999.90;;;24.60;99.90;;;;;;5072577;28;20300;-65
2022/06/26 12:06:41;;;;;;;1476.80;999.90;;;24.80;99.90;;;;;;5078439;28;20197;-65
2022/06/26 12:09:17;;;;;;;1465.18;999.90;;;25.10;99.90;;;;;;5068764;28;20626;-65
2022/06/26 12:11:44;;;;;;;1395.63;999.90;;;25.50;99.90;;;;;;5091408;28;20192;-65